Gent, België

4:35 PM CET op 31 oktober 2014 (GMT +0100)
Wachtebeke Belgisch/Nederlandse grens | Change Station
CLOSE
Current Station
Persoonlijk weerstation
Location: Wachtebeke, VLAAMS GEWEST
Geometrische hoogte: 16 ft
Nabije weerstations

Hoogte 16 ft 51.17 °N, 3.86 °E | Updated 1 second ago

Clear
Helder
64.6 °F
Voelt als 64.6 °F
N
0.0
Wind Variabel Wind van ZO
Gusts 0.0 mijl/u

Vandaag
Hoog -- | Laag -- °F
--% Kans op neerslag
Gisteren
Hoog -- | Laag -- °F
Precip. -- inches
7:35 AM 5:20 PM
Eerste kwartier, 56% visible
Druk 30.12 inches
Zicht 6.2 mijlen
Wolken
Dauwpunt 57 °F
Vochtigheid 76%
Neerslag 0.00 inches
Dikte sneeuw Niet beschikbaar.
UV 1.0 van de 12
Pollen Niet beschikbaar.
Luchtkwaliteit Niet beschikbaar.
Flu Activity Niet beschikbaar.
METAR EHWO 311525Z AUTO 17004KT 9999 NCD 19/12 Q1020 BLU

More Conditions Fewer Conditions

Druk 30.12 inches
Zicht 6.2 mijlen
Wolken
Dauwpunt 57 °F
Vochtigheid 76%
Neerslag 0.00 inches
Dikte sneeuw Niet beschikbaar.
UV 1.0 van de 12
Pollen Niet beschikbaar.
Luchtkwaliteit Niet beschikbaar.
Flu Activity Niet beschikbaar.
METAR EHWO 311525Z AUTO 17004KT 9999 NCD 19/12 Q1020 BLU

More Conditions Fewer Conditions

10-Day Weather Forecast

Almanac

Astronomie

Oct. 31, 2014 Opkomst Ondergang
Werkelijke tijd
Burgerlijke schemering
Nautische schemering
Astronomische schemering
Maan
Golflengte van het zichtbare licht
Daglengte
Tomorrow will be .
, % of the Moon is Illuminated

Extremen vandaag

Country Highs Country Lows

Community

WunderPhotos

Upload Photos

1,766,640 foto’s ge-upload!

WunderBlogs® & News

Nearby

Luchtkwaliteit

  Luchtkwaliteit LK-index Verontreinigende stof
Not available.

Dikte sneeuw

Station Depth Geometrische hoogte

Aardbevingen

Stad Distance Mag. Time & Date
Minimum magnitude displayed is 2.5.

Watertemperatuur langs de kust

Plaats Temperatuur

Nabije weerstations